Time;durP1;ratioP1;P1;durP2;ratioP2;P2;SDS_P1;SDS_P2;PMS_P1;PMS_P2;Temp;Humidity;BMP_temperature;BMP_pressure;BME280_temperature;BME280_humidity;BME280_pressure;Samples;Min_cycle;Max_cycle;Signal;HPM_P1;HPM_P2
2021/11/26 00:01:40;;;;;;;;;;;;;;;11.68;100.00;98965.28;5057108;28;19917;-79
2021/11/26 00:04:12;;;;;;;;;;;;;;;11.61;100.00;98974.47;5056468;28;19970;-78
2021/11/26 00:06:37;;;;;;;;;;;;;;;11.57;100.00;98987.59;5060423;28;19920;-78
2021/11/26 00:09:03;;;;;;;;;;;;;;;11.58;100.00;98980.03;5059672;28;20486;-78
2021/11/26 00:11:31;;;;;;;;;;;;;;;11.58;100.00;98985.59;5060239;28;19917;-79
2021/11/26 00:14:45;;;;;;;;;;;;;;;11.60;100.00;98977.63;5059965;28;19924;-78
2021/11/26 00:16:55;;;;;;;;;;;;;;;11.61;100.00;98979.22;5055891;28;20279;-79
2021/11/26 00:19:24;;;;;;;;;;;;;;;11.68;100.00;98990.38;5059875;28;19917;-78
2021/11/26 00:21:55;;;;;;;;;;;;;;;11.68;100.00;98988.38;5062843;28;19923;-78
2021/11/26 00:24:23;;;;;;;;;;;;;;;11.72;100.00;98985.59;5061028;28;20007;-78
2021/11/26 00:26:48;;;;;;;;;;;;;;;11.71;100.00;98984.78;5061622;28;20371;-79
2021/11/26 00:29:17;;;;;;;;;;;;;;;11.73;100.00;98981.63;5060591;28;19917;-78
2021/11/26 00:31:43;;;;;;;;;;;;;;;11.78;100.00;98987.56;5062334;28;19917;-79
2021/11/26 00:34:12;;;;;;;;;;;;;;;11.76;100.00;98986.38;5043971;28;19921;-78
2021/11/26 00:36:40;;;;;;;;;;;;;;;11.76;100.00;98978.00;5060488;28;19921;-78
2021/11/26 00:39:06;;;;;;;;;;;;;;;11.82;100.00;98981.22;5059505;28;20356;-78
2021/11/26 00:41:32;;;;;;;;;;;;;;;11.81;100.00;98983.19;5045036;28;19970;-78
2021/11/26 00:43:57;;;;;;;;;;;;;;;11.80;100.00;98992.75;5061486;28;20326;-78
2021/11/26 00:46:25;;;;;;;;;;;;;;;11.79;100.00;98985.59;5060544;28;19917;-78
2021/11/26 00:48:57;;;;;;;;;;;;;;;11.81;100.00;98988.75;5061490;28;20004;-79
2021/11/26 00:51:22;;;;;;;;;;;;;;;11.77;100.00;98983.22;5061051;28;19924;-79
2021/11/26 00:53:50;;;;;;;;;;;;;;;11.81;100.00;98991.53;5059988;28;19920;-78
2021/11/26 00:56:19;;;;;;;;;;;;;;;11.77;100.00;98979.59;5060736;28;19924;-78
2021/11/26 00:58:47;;;;;;;;;;;;;;;11.77;100.00;98979.59;5061504;28;19943;-79
2021/11/26 01:01:13;;;;;;;;;;;;;;;11.75;100.00;98982.00;5060884;28;19962;-78
2021/11/26 01:03:41;;;;;;;;;;;;;;;11.75;100.00;98979.22;5060625;28;19917;-78
2021/11/26 01:06:07;;;;;;;;;;;;;;;11.72;100.00;98978.03;5062043;28;19916;-79
2021/11/26 01:08:41;;;;;;;;;;;;;;;11.73;100.00;98976.84;5067707;28;19917;-79
2021/11/26 01:11:09;;;;;;;;;;;;;;;11.71;100.00;98970.06;5065431;28;19916;-79
2021/11/26 01:13:37;;;;;;;;;;;;;;;11.67;100.00;98972.88;5064145;28;19944;-80
2021/11/26 01:16:06;;;;;;;;;;;;;;;11.68;100.00;98974.44;5064471;28;19966;-80
2021/11/26 01:18:31;;;;;;;;;;;;;;;11.65;100.00;98969.66;5065572;28;20351;-80
2021/11/26 01:20:57;;;;;;;;;;;;;;;11.61;100.00;98963.31;5069080;28;19942;-80
2021/11/26 01:23:24;;;;;;;;;;;;;;;11.60;100.00;98972.06;5064036;28;19974;-79
2021/11/26 01:25:50;;;;;;;;;;;;;;;11.58;100.00;98968.88;5063638;28;19917;-79
2021/11/26 01:28:15;;;;;;;;;;;;;;;11.54;100.00;98958.53;5063792;28;19917;-81
2021/11/26 01:30:48;;;;;;;;;;;;;;;11.54;100.00;98954.94;5061891;28;19917;-76
2021/11/26 01:33:15;;;;;;;;;;;;;;;11.46;100.00;98958.94;5064444;28;19916;-79
2021/11/26 01:35:44;;;;;;;;;;;;;;;11.44;100.00;98958.53;5065264;28;19916;-80
2021/11/26 01:38:13;;;;;;;;;;;;;;;11.34;99.84;98953.75;5066648;28;19921;-80
2021/11/26 01:40:41;;;;;;;;;;;;;;;11.21;100.00;98961.72;5066005;28;19924;-79
2021/11/26 01:43:13;;;;;;;;;;;;;;;11.14;100.00;98967.28;5065836;28;19917;-78
2021/11/26 01:45:43;;;;;;;;;;;;;;;11.20;100.00;98969.28;5067679;28;19967;-79
2021/11/26 01:48:08;;;;;;;;;;;;;;;11.18;100.00;98957.72;5066099;28;20383;-79
2021/11/26 01:50:37;;;;;;;;;;;;;;;11.33;100.00;98958.53;5067152;28;19924;-79
2021/11/26 01:53:05;;;;;;;;;;;;;;;11.25;100.00;98965.31;5067746;28;19938;-79
2021/11/26 01:55:32;;;;;;;;;;;;;;;11.21;100.00;98956.94;5067800;28;19963;-80
2021/11/26 01:57:58;;;;;;;;;;;;;;;11.16;100.00;98959.31;5067566;28;19920;-80
2021/11/26 02:00:29;;;;;;;;;;;;;;;11.13;100.00;98946.19;5064991;28;19923;-79
2021/11/26 02:02:57;;;;;;;;;;;;;;;11.14;100.00;98950.59;5074087;28;19917;-79
2021/11/26 02:05:23;;;;;;;;;;;;;;;11.01;100.00;98950.94;5074086;28;20430;-80
2021/11/26 02:07:49;;;;;;;;;;;;;;;11.01;100.00;98953.72;5064402;28;19953;-80
2021/11/26 02:10:17;;;;;;;;;;;;;;;11.05;100.00;98947.38;5064750;28;19924;-80
2021/11/26 02:12:48;;;;;;;;;;;;;;;11.06;100.00;98948.97;5065309;28;19971;-79
2021/11/26 02:15:23;;;;;;;;;;;;;;;10.98;100.00;98940.63;5064486;28;19924;-80
2021/11/26 02:17:49;;;;;;;;;;;;;;;10.92;100.00;98945.00;5065086;28;19920;-80
2021/11/26 02:20:19;;;;;;;;;;;;;;;10.97;100.00;98933.47;5066051;28;19917;-79
2021/11/26 02:22:47;;;;;;;;;;;;;;;10.94;100.00;98937.03;5066385;28;19916;-80
2021/11/26 02:25:17;;;;;;;;;;;;;;;10.90;100.00;98929.88;5066332;28;19917;-80
2021/11/26 02:27:43;;;;;;;;;;;;;;;10.86;100.00;98924.28;5066370;28;19918;-79
2021/11/26 02:30:17;;;;;;;;;;;;;;;10.84;100.00;98929.47;5064731;28;19917;-79
2021/11/26 02:32:45;;;;;;;;;;;;;;;10.81;100.00;98921.09;5065606;28;19917;-80
2021/11/26 02:35:13;;;;;;;;;;;;;;;10.80;100.00;98913.94;5064677;28;19917;-79
2021/11/26 02:37:39;;;;;;;;;;;;;;;10.80;100.00;98913.94;5066291;28;19924;-80
2021/11/26 02:40:05;;;;;;;;;;;;;;;10.77;100.00;98914.75;5066286;28;19921;-79
2021/11/26 02:42:30;;;;;;;;;;;;;;;10.79;100.00;98906.81;5061422;28;20002;-79
2021/11/26 02:44:59;;;;;;;;;;;;;;;10.74;100.00;98910.75;5064587;28;19917;-79
2021/11/26 02:47:27;;;;;;;;;;;;;;;10.76;100.00;98916.75;5065119;28;19923;-79
2021/11/26 02:49:55;;;;;;;;;;;;;;;10.84;100.00;98915.56;5064710;28;19963;-80
2021/11/26 02:52:21;;;;;;;;;;;;;;;10.72;100.00;98916.72;5064425;28;19917;-79
2021/11/26 02:54:46;;;;;;;;;;;;;;;10.79;100.00;98901.22;5064110;28;19948;-79
2021/11/26 02:57:14;;;;;;;;;;;;;;;10.69;100.00;98913.94;5063783;28;19923;-79
2021/11/26 02:59:42;;;;;;;;;;;;;;;10.72;100.00;98905.59;5062278;28;19924;-80
2021/11/26 03:02:14;;;;;;;;;;;;;;;10.72;100.00;98902.03;5063407;28;20011;-79
2021/11/26 03:04:39;;;;;;;;;;;;;;;10.75;100.00;98898.44;5063508;28;19916;-79
2021/11/26 03:07:09;;;;;;;;;;;;;;;10.74;100.00;98905.19;5064749;28;19954;-80
2021/11/26 03:09:39;;;;;;;;;;;;;;;10.77;100.00;98907.19;5065374;28;19959;-79
2021/11/26 03:12:05;;;;;;;;;;;;;;;10.78;100.00;98903.22;5063489;28;19924;-79
2021/11/26 03:14:30;;;;;;;;;;;;;;;10.76;100.00;98897.28;5062524;28;19923;-79
2021/11/26 03:17:02;;;;;;;;;;;;;;;10.79;100.00;98902.03;5062196;28;19916;-79
2021/11/26 03:19:30;;;;;;;;;;;;;;;10.75;100.00;98893.66;5061374;28;20346;-79
2021/11/26 03:21:58;;;;;;;;;;;;;;;10.72;100.00;98888.13;5061411;28;19962;-79
2021/11/26 03:24:27;;;;;;;;;;;;;;;10.74;100.00;98885.72;5062313;28;20331;-80
2021/11/26 03:26:52;;;;;;;;;;;;;;;10.75;100.00;98881.75;5070392;28;19924;-79
2021/11/26 03:29:20;;;;;;;;;;;;;;;10.69;100.00;98881.34;5064044;28;19921;-79
2021/11/26 03:31:45;;;;;;;;;;;;;;;10.70;100.00;98882.13;5061294;28;19917;-79
2021/11/26 03:34:11;;;;;;;;;;;;;;;10.72;100.00;98885.34;5061114;28;19917;-78
2021/11/26 03:36:36;;;;;;;;;;;;;;;10.74;100.00;98888.50;5060806;28;19916;-79
2021/11/26 03:39:08;;;;;;;;;;;;;;;10.72;100.00;98885.34;5061964;28;19928;-79
2021/11/26 03:41:33;;;;;;;;;;;;;;;10.54;100.00;98890.84;5067728;28;20055;-79
2021/11/26 03:43:59;;;;;;;;;;;;;;;10.40;99.95;98891.63;5070252;28;19921;-79
2021/11/26 03:46:30;;;;;;;;;;;;;;;10.34;100.00;98876.50;5062983;28;19967;-79
2021/11/26 03:48:55;;;;;;;;;;;;;;;10.38;100.00;98882.06;5061753;28;20386;-79
2021/11/26 03:51:21;;;;;;;;;;;;;;;10.49;100.00;98878.16;5062117;28;20008;-79
2021/11/26 03:53:49;;;;;;;;;;;;;;;10.45;100.00;98877.34;5046043;28;20020;-78
2021/11/26 03:56:15;;;;;;;;;;;;;;;10.56;100.00;98877.34;5061983;28;19917;-79
2021/11/26 03:58:40;;;;;;;;;;;;;;;10.47;100.00;98877.72;5061800;28;20360;-78
2021/11/26 04:01:11;;;;;;;;;;;;;;;10.55;100.00;98881.34;5062045;28;19917;-78
2021/11/26 04:03:40;;;;;;;;;;;;;;;10.66;100.00;98886.91;5061980;28;19917;-78
2021/11/26 04:06:11;;;;;;;;;;;;;;;10.64;100.00;98873.38;5061688;28;19966;-79
2021/11/26 04:08:41;;;;;;;;;;;;;;;10.66;100.00;98876.59;5061201;28;19916;-78
2021/11/26 04:11:09;;;;;;;;;;;;;;;10.61;100.00;98873.41;5061770;28;19967;-78
2021/11/26 04:13:40;;;;;;;;;;;;;;;10.70;100.00;98882.13;5060206;28;19917;-77
2021/11/26 04:16:12;;;;;;;;;;;;;;;10.75;100.00;98879.75;5060869;28;19979;-78
2021/11/26 04:18:40;;;;;;;;;;;;;;;10.86;100.00;98862.28;5059839;28;19927;-78
2021/11/26 04:21:08;;;;;;;;;;;;;;;10.90;100.00;98863.09;5059854;28;20011;-78
2021/11/26 04:23:37;;;;;;;;;;;;;;;10.82;100.00;98867.88;5060878;28;19916;-78
2021/11/26 04:26:08;;;;;;;;;;;;;;;10.88;100.00;98866.28;5061790;28;19921;-79
2021/11/26 04:28:36;;;;;;;;;;;;;;;10.94;100.00;98873.03;5057811;28;19938;-79
2021/11/26 04:31:03;;;;;;;;;;;;;;;10.92;100.00;98861.50;5061101;28;19924;-78
2021/11/26 04:33:35;;;;;;;;;;;;;;;10.92;100.00;98855.94;5061826;28;20442;-78
2021/11/26 04:36:06;;;;;;;;;;;;;;;10.95;100.00;98857.13;5060445;28;19963;-79
2021/11/26 04:38:35;;;;;;;;;;;;;;;10.96;100.00;98855.94;5061032;28;20015;-78
2021/11/26 04:41:00;;;;;;;;;;;;;;;10.96;100.00;98844.78;5060899;28;19970;-79
2021/11/26 04:43:28;;;;;;;;;;;;;;;10.95;100.00;98849.56;5067472;28;19921;-79
2021/11/26 04:45:59;;;;;;;;;;;;;;;10.98;100.00;98848.00;5068325;28;19939;-79
2021/11/26 04:48:27;;;;;;;;;;;;;;;11.00;100.00;98848.38;5069787;28;19924;-79
2021/11/26 04:50:53;;;;;;;;;;;;;;;10.95;100.00;98851.56;5065655;28;19917;-78
2021/11/26 04:53:19;;;;;;;;;;;;;;;11.02;100.00;98854.31;5063783;28;19924;-77
2021/11/26 04:55:47;;;;;;;;;;;;;;;11.07;100.00;98861.50;5063887;28;19948;-78
2021/11/26 04:58:15;;;;;;;;;;;;;;;11.10;100.00;98867.06;5062917;28;19924;-78
2021/11/26 05:00:44;;;;;;;;;;;;;;;11.12;100.00;98875.00;5063212;28;19916;-78
2021/11/26 05:03:09;;;;;;;;;;;;;;;11.10;100.00;98860.72;5066422;28;20359;-79
2021/11/26 05:05:35;;;;;;;;;;;;;;;11.13;100.00;98868.25;5070067;28;19905;-77
2021/11/26 05:08:01;;;;;;;;;;;;;;;11.14;100.00;98865.06;5067308;28;19940;-78
2021/11/26 05:10:27;;;;;;;;;;;;;;;11.14;100.00;98861.50;5064613;28;20371;-78
2021/11/26 05:12:58;;;;;;;;;;;;;;;11.14;100.00;98867.06;5062723;28;19953;-78
2021/11/26 05:15:25;;;;;;;;;;;;;;;11.12;100.00;98873.03;5062345;28;20383;-78
2021/11/26 05:17:51;;;;;;;;;;;;;;;11.12;100.00;98863.88;5063074;28;20272;-79
2021/11/26 05:20:23;;;;;;;;;;;;;;;11.14;100.00;98870.66;5062169;28;19951;-78
2021/11/26 05:22:49;;;;;;;;;;;;;;;11.18;100.00;98867.84;5061952;28;19921;-78
2021/11/26 05:25:18;;;;;;;;;;;;;;;11.19;100.00;98869.47;5062359;28;19923;-79
2021/11/26 05:27:46;;;;;;;;;;;;;;;11.15;100.00;98875.03;5062487;28;19917;-79
2021/11/26 05:30:17;;;;;;;;;;;;;;;11.14;100.00;98872.63;5062787;28;19924;-78
2021/11/26 05:32:43;;;;;;;;;;;;;;;11.12;100.00;98869.44;5065797;28;19956;-78
2021/11/26 05:35:10;;;;;;;;;;;;;;;11.12;100.00;98866.66;5069534;28;19916;-78
2021/11/26 05:37:35;;;;;;;;;;;;;;;11.16;100.00;98870.25;5062013;28;19916;-78
2021/11/26 05:40:05;;;;;;;;;;;;;;;11.11;100.00;98867.84;5062793;28;19928;-78
2021/11/26 05:42:34;;;;;;;;;;;;;;;11.09;100.00;98864.69;5062934;28;20330;-78
2021/11/26 05:45:03;;;;;;;;;;;;;;;11.10;100.00;98866.28;5062659;28;19923;-78
2021/11/26 05:47:29;;;;;;;;;;;;;;;11.09;100.00;98859.13;5062783;28;19972;-79
2021/11/26 05:50:00;;;;;;;;;;;;;;;11.12;100.00;98859.09;5063042;28;19923;-79
2021/11/26 05:52:28;;;;;;;;;;;;;;;11.19;100.00;98841.63;5063539;28;19916;-79
2021/11/26 05:54:54;;;;;;;;;;;;;;;11.14;100.00;98851.16;5067151;28;19924;-79
2021/11/26 05:57:22;;;;;;;;;;;;;;;11.21;100.00;98844.78;5064967;28;20383;-79
2021/11/26 05:59:47;;;;;;;;;;;;;;;11.15;100.00;98847.19;5066486;28;19917;-78
2021/11/26 06:02:12;;;;;;;;;;;;;;;11.31;100.00;98846.75;5064920;28;19966;-79
2021/11/26 06:04:41;;;;;;;;;;;;;;;11.17;99.61;98855.13;5066102;28;19924;-78
2021/11/26 06:07:07;;;;;;;;;;;;;;;11.13;99.74;98857.94;5062528;28;19917;-78
2021/11/26 06:09:35;;;;;;;;;;;;;;;11.14;100.00;98864.28;5061452;28;19924;-78
2021/11/26 06:12:04;;;;;;;;;;;;;;;11.16;100.00;98853.53;5063181;28;19917;-79
2021/11/26 06:14:29;;;;;;;;;;;;;;;11.12;100.00;98847.16;5064009;28;19917;-78
2021/11/26 06:16:55;;;;;;;;;;;;;;;11.02;100.00;98857.94;5067912;28;19907;-78
2021/11/26 06:19:23;;;;;;;;;;;;;;;11.05;100.00;98859.13;5071548;28;19924;-79
2021/11/26 06:21:48;;;;;;;;;;;;;;;11.10;99.99;98850.38;5067454;28;19928;-79
2021/11/26 06:24:14;;;;;;;;;;;;;;;11.18;97.32;98854.72;5063273;28;19917;-78
2021/11/26 06:26:42;;;;;;;;;;;;;;;11.06;98.41;98857.13;5062025;28;19917;-78
2021/11/26 06:29:13;;;;;;;;;;;;;;;10.97;98.52;98863.06;5061642;28;20012;-79
2021/11/26 06:31:46;;;;;;;;;;;;;;;11.15;98.87;98879.78;5064514;28;19917;-78
2021/11/26 06:34:15;;;;;;;;;;;;;;;11.17;99.00;98867.06;5064000;28;19960;-79
2021/11/26 06:36:40;;;;;;;;;;;;;;;11.16;99.66;98865.47;5063514;28;19946;-79
2021/11/26 06:39:06;;;;;;;;;;;;;;;11.23;99.73;98870.22;5062230;28;19978;-79
2021/11/26 06:41:31;;;;;;;;;;;;;;;11.25;98.23;98873.44;5062808;28;19927;-78
2021/11/26 06:43:57;;;;;;;;;;;;;;;11.40;94.98;98861.09;5062969;28;19917;-78
2021/11/26 06:46:22;;;;;;;;;;;;;;;11.50;94.82;98879.75;5061892;28;19917;-79
2021/11/26 06:48:48;;;;;;;;;;;;;;;11.65;95.01;98863.00;5047602;28;19925;-78
2021/11/26 06:51:13;;;;;;;;;;;;;;;11.73;94.68;98870.16;5063405;28;19923;-79
2021/11/26 06:53:39;;;;;;;;;;;;;;;11.77;95.09;98876.50;5062451;28;19917;-78
2021/11/26 06:56:04;;;;;;;;;;;;;;;11.89;93.08;98878.09;5065288;28;20279;-79
2021/11/26 06:58:30;;;;;;;;;;;;;;;11.81;94.11;98885.63;5064369;28;19956;-80
2021/11/26 07:00:55;;;;;;;;;;;;;;;11.88;94.17;98879.28;5061045;28;20021;-79
2021/11/26 07:03:21;;;;;;;;;;;;;;;11.75;94.20;98879.69;5061846;28;19980;-79
2021/11/26 07:05:46;;;;;;;;;;;;;;;11.68;94.99;98884.50;5058516;28;19931;-78
2021/11/26 07:08:12;;;;;;;;;;;;;;;11.81;95.81;98885.63;5059692;28;19917;-79
2021/11/26 07:10:38;;;;;;;;;;;;;;;11.87;94.68;98881.28;5043289;28;19925;-79
2021/11/26 07:13:03;;;;;;;;;;;;;;;11.91;93.79;98873.69;5064370;28;19916;-80
2021/11/26 07:15:29;;;;;;;;;;;;;;;11.97;93.50;98874.88;5062544;28;19917;-78
2021/11/26 07:17:54;;;;;;;;;;;;;;;11.97;92.78;98874.88;5064656;28;19923;-80
2021/11/26 07:20:20;;;;;;;;;;;;;;;11.99;90.96;98871.69;5061904;28;19967;-79
2021/11/26 07:22:45;;;;;;;;;;;;;;;11.98;89.62;98870.09;5062411;28;19917;-80
2021/11/26 07:25:11;;;;;;;;;;;;;;;12.00;88.37;98873.28;5063131;28;19917;-79
2021/11/26 07:27:37;;;;;;;;;;;;;;;12.28;87.71;98867.56;5063045;28;19917;-80
2021/11/26 07:30:04;;;;;;;;;;;;;;;12.18;86.44;98871.19;5065811;28;19916;-80
2021/11/26 07:32:29;;;;;;;;;;;;;;;12.20;88.03;98862.44;5069196;28;19924;-81
2021/11/26 07:34:54;;;;;;;;;;;;;;;13.17;87.64;98854.22;5065138;28;19917;-79
2021/11/26 07:37:20;;;;;;;;;;;;;;;13.81;80.24;98862.78;5063203;28;19917;-80
2021/11/26 07:39:46;;;;;;;;;;;;;;;14.01;77.95;98857.34;5062969;28;19928;-79
2021/11/26 07:42:12;;;;;;;;;;;;;;;14.56;78.30;98859.03;5068053;28;19923;-80
2021/11/26 07:44:39;;;;;;;;;;;;;;;14.28;77.77;98865.00;5064949;28;19917;-79
2021/11/26 07:47:05;;;;;;;;;;;;;;;13.92;79.57;98862.66;5061805;28;19917;-80
2021/11/26 07:49:31;;;;;;;;;;;;;;;14.00;81.18;98866.94;5062822;28;19916;-80
2021/11/26 07:51:57;;;;;;;;;;;;;;;13.51;81.29;98863.47;5057574;28;20371;-79
2021/11/26 07:54:23;;;;;;;;;;;;;;;13.23;82.65;98858.19;5059367;28;19967;-80
2021/11/26 07:56:49;;;;;;;;;;;;;;;12.86;85.53;98862.44;5061866;28;19921;-80
2021/11/26 07:59:14;;;;;;;;;;;;;;;12.77;87.04;98856.50;5065385;28;19921;-79
2021/11/26 08:01:40;;;;;;;;;;;;;;;12.50;87.37;98861.88;5063802;28;19923;-80
2021/11/26 08:04:05;;;;;;;;;;;;;;;12.37;88.44;98864.34;5063701;28;19916;-80
2021/11/26 08:06:30;;;;;;;;;;;;;;;12.05;89.75;98862.50;5062422;28;19952;-80
2021/11/26 08:08:56;;;;;;;;;;;;;;;12.06;91.69;98880.81;5061388;28;19917;-80
2021/11/26 08:11:21;;;;;;;;;;;;;;;12.03;92.15;98875.25;5061090;28;19924;-80
2021/11/26 08:13:47;;;;;;;;;;;;;;;11.97;92.34;98880.44;5059197;28;19917;-80
2021/11/26 08:16:12;;;;;;;;;;;;;;;11.98;92.90;98876.44;5060438;28;19917;-80
2021/11/26 08:18:38;;;;;;;;;;;;;;;11.96;93.00;98872.50;5062853;28;19925;-80
2021/11/26 08:21:03;;;;;;;;;;;;;;;11.95;93.58;98866.13;5058737;28;19916;-80
2021/11/26 08:23:29;;;;;;;;;;;;;;;12.05;94.24;98865.28;5059070;28;19923;-81
2021/11/26 08:25:57;;;;;;;;;;;;;;;12.11;94.08;98856.50;5061320;28;19939;-81
2021/11/26 08:28:23;;;;;;;;;;;;;;;12.23;94.11;98854.03;5057522;28;19962;-80
2021/11/26 08:30:48;;;;;;;;;;;;;;;12.43;94.02;98840.41;5058033;28;19978;-82
2021/11/26 08:33:13;;;;;;;;;;;;;;;12.56;91.88;98849.88;5064219;28;19917;-80
2021/11/26 08:35:39;;;;;;;;;;;;;;;12.89;91.68;98852.44;5062553;28;19947;-79
2021/11/26 08:38:04;;;;;;;;;;;;;;;12.88;91.03;98854.44;5058391;28;19917;-80
2021/11/26 08:40:30;;;;;;;;;;;;;;;12.74;89.33;98848.97;5057148;28;19959;-78
2021/11/26 08:42:55;;;;;;;;;;;;;;;12.73;90.86;98839.00;5058046;28;20385;-79
2021/11/26 08:45:21;;;;;;;;;;;;;;;12.75;90.57;98845.75;5057457;28;19916;-78
2021/11/26 08:47:46;;;;;;;;;;;;;;;12.58;89.84;98847.47;5057707;28;19940;-81
2021/11/26 08:50:15;;;;;;;;;;;;;;;12.45;90.17;98843.56;5055697;28;19917;-79
2021/11/26 08:52:42;;;;;;;;;;;;;;;12.55;88.73;98834.34;5065076;28;19940;-80
2021/11/26 08:55:11;;;;;;;;;;;;;;;12.41;89.92;98842.81;5072137;28;19933;-79
2021/11/26 08:57:37;;;;;;;;;;;;;;;12.32;90.42;98861.97;5073876;28;19988;-79
2021/11/26 09:00:04;;;;;;;;;;;;;;;12.27;91.18;98891.09;5059331;28;19971;-80
2021/11/26 09:02:29;;;;;;;;;;;;;;;12.29;91.63;98910.97;5057438;28;19916;-80
2021/11/26 09:04:55;;;;;;;;;;;;;;;12.48;91.69;98898.56;5060378;28;20394;-80
2021/11/26 09:07:21;;;;;;;;;;;;;;;12.44;89.94;98883.03;5065687;28;19924;-78
2021/11/26 09:09:46;;;;;;;;;;;;;;;12.51;87.03;98880.19;5066529;28;19923;-79
2021/11/26 09:12:11;;;;;;;;;;;;;;;12.72;87.60;98901.59;5067426;28;19940;-80
2021/11/26 09:14:38;;;;;;;;;;;;;;;12.88;88.23;98915.03;5065308;28;19972;-79
2021/11/26 09:17:03;;;;;;;;;;;;;;;12.97;88.58;98913.41;5065813;28;19924;-78
2021/11/26 09:19:29;;;;;;;;;;;;;;;13.05;88.71;98895.41;5066235;28;20367;-78
2021/11/26 09:21:54;;;;;;;;;;;;;;;13.09;87.81;98886.97;5059042;28;19917;-79
2021/11/26 09:24:20;;;;;;;;;;;;;;;13.13;88.37;98887.75;5056631;28;20287;-79
2021/11/26 09:26:45;;;;;;;;;;;;;;;13.29;85.29;98873.28;5059162;28;19923;-79
2021/11/26 09:29:10;;;;;;;;;;;;;;;13.30;85.31;98866.47;5071987;28;19963;-78
2021/11/26 09:31:36;;;;;;;;;;;;;;;13.34;84.50;98867.25;5073006;28;20434;-81
2021/11/26 09:34:04;;;;;;;;;;;;;;;13.10;84.99;98867.03;5076862;28;19952;-80
2021/11/26 09:36:33;;;;;;;;;;;;;;;13.07;86.10;98861.47;5075799;28;19924;-80
2021/11/26 09:38:58;;;;;;;;;;;;;;;12.99;85.56;98855.13;5075515;28;19925;-80
2021/11/26 09:41:26;;;;;;;;;;;;;;;13.08;86.67;98858.25;5076225;28;19916;-80
2021/11/26 09:43:52;;;;;;;;;;;;;;;13.39;86.81;98852.84;5077091;28;19948;-78
2021/11/26 09:46:24;;;;;;;;;;;;;;;13.35;86.08;98850.06;5072899;28;19917;-78
2021/11/26 09:48:49;;;;;;;;;;;;;;;13.71;85.10;98843.31;5073644;28;19917;-78
2021/11/26 09:51:15;;;;;;;;;;;;;;;13.65;85.45;98833.81;5073228;28;19956;-78
2021/11/26 09:53:40;;;;;;;;;;;;;;;13.58;85.48;98841.06;5064548;28;19917;-77
2021/11/26 09:56:07;;;;;;;;;;;;;;;13.55;86.31;98835.50;5064541;28;20359;-79
2021/11/26 09:58:34;;;;;;;;;;;;;;;13.44;84.77;98823.66;5064822;28;19923;-79
2021/11/26 10:01:00;;;;;;;;;;;;;;;13.36;87.08;98828.50;5063562;28;19917;-79
2021/11/26 10:03:43;;;;;;;;;;;;;;;13.41;86.67;98824.47;5064882;28;20279;-79
2021/11/26 10:06:27;;;;;;;;;;;;;;;13.42;85.65;98812.88;5065559;28;19916;-79
2021/11/26 10:09:05;;;;;;;;;;;;;;;13.21;86.71;98799.09;5066745;28;19917;-79
2021/11/26 10:11:32;;;;;;;;;;;;;;;13.16;87.69;98796.78;5065215;28;20394;-79
2021/11/26 10:13:58;;;;;;;;;;;;;;;13.17;88.47;98799.16;5063690;28;20017;-79
2021/11/26 10:16:23;;;;;;;;;;;;;;;13.16;88.89;98794.00;5062764;28;19916;-78
2021/11/26 10:18:50;;;;;;;;;;;;;;;13.03;88.30;98805.66;5060156;28;19917;-80
2021/11/26 10:21:16;;;;;;;;;;;;;;;12.95;88.41;98800.56;5061234;28;19917;-81
2021/11/26 10:23:45;;;;;;;;;;;;;;;12.84;89.51;98797.84;5062629;28;20435;-79
2021/11/26 10:26:18;;;;;;;;;;;;;;;12.76;84.70;98797.09;5064197;28;20383;-79
2021/11/26 10:28:47;;;;;;;;;;;;;;;12.72;86.26;98795.53;5065715;28;19917;-80
2021/11/26 10:31:24;;;;;;;;;;;;;;;12.65;86.52;98795.63;5066661;28;19954;-78
2021/11/26 10:33:51;;;;;;;;;;;;;;;12.65;85.32;98787.25;5065737;28;19923;-79
2021/11/26 10:36:16;;;;;;;;;;;;;;;12.62;86.31;98774.88;5064863;28;19917;-79
2021/11/26 10:38:42;;;;;;;;;;;;;;;12.66;86.64;98775.66;5060513;28;19928;-80
2021/11/26 10:41:12;;;;;;;;;;;;;;;12.73;86.97;98785.97;5063220;28;19921;-80
